createdAt,value
2019-02-19T00:01:58.792Z,98092.05
2019-02-19T00:04:30.455Z,98095.70
2019-02-19T00:07:02.061Z,98095.27
2019-02-19T00:09:33.606Z,98094.64
2019-02-19T00:12:05.197Z,98083.21
2019-02-19T00:14:36.700Z,98078.91
2019-02-19T00:17:08.341Z,98078.09
2019-02-19T00:19:39.934Z,98085.49
2019-02-19T00:22:11.594Z,98081.12
2019-02-19T00:24:43.169Z,98084.40
2019-02-19T00:27:14.829Z,98076.16
2019-02-19T00:29:46.349Z,98076.47
2019-02-19T00:32:20.378Z,98067.63
2019-02-19T00:34:54.952Z,98070.91
2019-02-19T00:37:26.388Z,98072.37
2019-02-19T00:39:58.001Z,98069.53
2019-02-19T00:42:29.609Z,98068.03
2019-02-19T00:45:01.149Z,98062.25
2019-02-19T00:47:32.818Z,98061.06
2019-02-19T00:50:04.398Z,98058.34
2019-02-19T00:52:36.028Z,98054.28
2019-02-19T00:55:08.417Z,98056.13
2019-02-19T00:57:40.044Z,98052.59
2019-02-19T01:00:13.733Z,98046.64
2019-02-19T01:02:45.468Z,98046.30
2019-02-19T01:05:17.203Z,98043.73
2019-02-19T01:07:49.002Z,98038.67
2019-02-19T01:10:20.526Z,98034.48
2019-02-19T01:12:53.210Z,98041.92
2019-02-19T01:15:25.703Z,98036.61
2019-02-19T01:17:57.563Z,98039.46
2019-02-19T01:20:29.298Z,98039.21
2019-02-19T01:23:02.133Z,98037.22
2019-02-19T01:25:33.779Z,98035.88
2019-02-19T01:28:05.421Z,98034.94
2019-02-19T01:30:36.948Z,98033.38
2019-02-19T01:33:10.389Z,98030.19
2019-02-19T01:35:41.928Z,98020.56
2019-02-19T01:38:13.438Z,98022.41
2019-02-19T01:40:45.038Z,98022.56
2019-02-19T01:43:16.633Z,98024.35
2019-02-19T01:45:48.250Z,98016.05
2019-02-19T01:48:19.841Z,98013.77
2019-02-19T01:50:51.445Z,98012.98
2019-02-19T01:53:26.149Z,98020.29
2019-02-19T01:55:57.635Z,98018.23
2019-02-19T01:58:30.703Z,98011.64
2019-02-19T02:01:02.240Z,98006.15
2019-02-19T02:03:33.741Z,98008.48
2019-02-19T02:06:05.312Z,98010.36
2019-02-19T02:08:36.940Z,98008.37
2019-02-19T02:11:11.790Z,98004.81
2019-02-19T02:13:42.976Z,98002.56
2019-02-19T02:16:16.756Z,98001.78
2019-02-19T02:18:48.426Z,97999.09
2019-02-19T02:21:19.982Z,98001.63
2019-02-19T02:23:51.602Z,98002.00
2019-02-19T02:26:23.094Z,98004.41
2019-02-19T02:28:54.740Z,97995.00
2019-02-19T02:31:26.274Z,98005.13
2019-02-19T02:33:57.844Z,98001.47
2019-02-19T02:36:29.372Z,98008.59
2019-02-19T02:39:00.968Z,98004.16
2019-02-19T02:41:32.712Z,98006.40
2019-02-19T02:44:04.344Z,98006.25
2019-02-19T02:46:35.911Z,98012.14
2019-02-19T02:49:07.473Z,98015.11
2019-02-19T02:51:39.173Z,98012.10
2019-02-19T02:54:11.844Z,98012.89
2019-02-19T02:56:43.465Z,98006.24
2019-02-19T02:59:15.006Z,98003.18
2019-02-19T03:01:46.644Z,98004.20
2019-02-19T03:04:18.185Z,98002.88
2019-02-19T03:06:54.779Z,98000.19
2019-02-19T03:09:26.503Z,98000.59
2019-02-19T03:11:58.152Z,98005.08
2019-02-19T03:14:29.750Z,97994.78
2019-02-19T03:17:01.405Z,98003.87
2019-02-19T03:19:33.046Z,98002.86
2019-02-19T03:22:04.827Z,98000.62
2019-02-19T03:24:36.423Z,97993.37
2019-02-19T03:27:07.944Z,97998.27
2019-02-19T03:29:39.684Z,97996.41
2019-02-19T03:32:11.418Z,97992.17
2019-02-19T03:34:42.977Z,98000.82
2019-02-19T03:37:14.691Z,97999.55
2019-02-19T03:39:47.917Z,97993.67
2019-02-19T03:42:19.907Z,97990.81
2019-02-19T03:44:51.381Z,97992.34
2019-02-19T03:47:24.869Z,97990.72
2019-02-19T03:49:56.399Z,97993.02
2019-02-19T03:52:28.102Z,97991.78
2019-02-19T03:54:59.721Z,97997.74
2019-02-19T03:57:31.466Z,97994.34
2019-02-19T04:00:03.168Z,97997.13
2019-02-19T04:02:35.971Z,97989.66
2019-02-19T04:05:07.701Z,97991.04
2019-02-19T04:07:39.317Z,97994.28
2019-02-19T04:10:10.846Z,97995.19
2019-02-19T04:12:42.455Z,97990.95
2019-02-19T04:15:15.007Z,97991.55
2019-02-19T04:17:46.628Z,98000.62
2019-02-19T04:20:18.161Z,97993.10
2019-02-19T04:22:49.607Z,97996.07
2019-02-19T04:25:21.154Z,97995.50
2019-02-19T04:27:52.811Z,98000.72
2019-02-19T04:30:24.420Z,97999.28
2019-02-19T04:32:57.835Z,97995.73
2019-02-19T04:35:29.436Z,97998.13
2019-02-19T04:38:01.275Z,98001.22
2019-02-19T04:40:32.799Z,97997.59
2019-02-19T04:43:05.582Z,98000.25
2019-02-19T04:45:37.144Z,97995.13
2019-02-19T04:48:08.736Z,97996.37
2019-02-19T04:50:40.335Z,98000.94
2019-02-19T04:53:12.039Z,98007.05
2019-02-19T04:55:43.625Z,98007.27
2019-02-19T04:58:15.155Z,98003.43
2019-02-19T05:00:48.929Z,98011.11
2019-02-19T05:03:20.507Z,98011.70
2019-02-19T05:05:54.537Z,98013.63
2019-02-19T05:08:27.415Z,98021.30
2019-02-19T05:10:59.364Z,98018.71
2019-02-19T05:13:30.951Z,98019.09
2019-02-19T05:16:02.613Z,98023.70
2019-02-19T05:18:34.225Z,98026.11
2019-02-19T05:21:07.299Z,98030.80
2019-02-19T05:23:38.914Z,98036.08
2019-02-19T05:26:10.514Z,98036.70
2019-02-19T05:28:42.168Z,98037.36
2019-02-19T05:31:13.840Z,98038.55
2019-02-19T05:33:45.484Z,98045.23
2019-02-19T05:36:19.522Z,98046.63
2019-02-19T05:38:52.378Z,98047.41
2019-02-19T05:41:24.072Z,98046.63
2019-02-19T05:43:55.696Z,98056.50
2019-02-19T05:46:27.288Z,98052.89
2019-02-19T05:48:58.962Z,98053.61
2019-02-19T05:51:30.589Z,98060.13
2019-02-19T05:54:02.202Z,98063.84
2019-02-19T05:56:33.669Z,98056.92
2019-02-19T05:59:05.245Z,98061.57
2019-02-19T06:01:36.748Z,98067.03
2019-02-19T06:04:08.438Z,98072.06
2019-02-19T06:06:39.951Z,98068.72
2019-02-19T06:09:11.509Z,98071.50
2019-02-19T06:11:44.384Z,98070.22
2019-02-19T06:14:17.186Z,98070.06
2019-02-19T06:16:48.828Z,98068.91
2019-02-19T06:19:20.441Z,98075.91
2019-02-19T06:21:51.912Z,98075.53
2019-02-19T06:24:23.480Z,98075.09
2019-02-19T06:26:55.044Z,98080.94
2019-02-19T06:29:26.626Z,98083.77
2019-02-19T06:31:58.163Z,98080.72
2019-02-19T06:34:31.291Z,98085.89
2019-02-19T06:37:03.042Z,98081.84
2019-02-19T06:39:34.603Z,98080.55
2019-02-19T06:42:06.109Z,98074.33
2019-02-19T06:44:37.903Z,98088.80
2019-02-19T06:47:09.439Z,98078.45
2019-02-19T06:49:40.972Z,98081.36
2019-02-19T06:52:14.168Z,98083.03
2019-02-19T06:54:45.679Z,98082.90
2019-02-19T06:57:17.393Z,98084.08
2019-02-19T06:59:48.940Z,98083.14
2019-02-19T07:02:44.405Z,98084.18
2019-02-19T07:05:21.322Z,98089.82
2019-02-19T07:07:56.608Z,98091.95
2019-02-19T07:10:28.184Z,98091.17
2019-02-19T07:12:59.717Z,98091.11
2019-02-19T07:15:31.359Z,98093.38
2019-02-19T07:18:02.951Z,98092.87
2019-02-19T07:20:34.657Z,98097.48
2019-02-19T07:23:06.353Z,98090.72
2019-02-19T07:25:37.950Z,98087.59
2019-02-19T07:28:09.557Z,98098.75
2019-02-19T07:30:41.407Z,98100.21
2019-02-19T07:33:12.967Z,98101.70
2019-02-19T07:35:44.621Z,98093.23
2019-02-19T07:38:16.321Z,98090.83
2019-02-19T07:40:47.909Z,98094.05
2019-02-19T07:43:19.374Z,98088.56
2019-02-19T07:45:52.352Z,98082.59
2019-02-19T07:48:23.992Z,98092.09
2019-02-19T07:50:55.637Z,98094.62
2019-02-19T07:53:27.075Z,98098.27
2019-02-19T07:55:58.693Z,98092.10
2019-02-19T07:58:30.400Z,98087.94
2019-02-19T08:01:02.111Z,98093.63
2019-02-19T08:03:33.642Z,98085.12
2019-02-19T08:06:07.147Z,98090.36
2019-02-19T08:08:38.709Z,98093.92
2019-02-19T08:11:10.416Z,98090.23
2019-02-19T08:13:42.065Z,98100.52
2019-02-19T08:16:13.813Z,98096.89
2019-02-19T08:18:45.453Z,98101.44
2019-02-19T08:21:17.211Z,98097.66
2019-02-19T08:23:53.322Z,98097.14
2019-02-19T08:26:25.056Z,98095.82
2019-02-19T08:29:06.950Z,98103.00
2019-02-19T08:31:29.955Z,98104.95
2019-02-19T08:34:01.630Z,98099.41
2019-02-19T08:36:33.199Z,98092.73
2019-02-19T08:39:05.882Z,98106.22
2019-02-19T08:41:37.421Z,98100.07
2019-02-19T08:44:12.102Z,98101.09
2019-02-19T08:46:43.822Z,98105.66
2019-02-19T08:49:15.463Z,98098.69
2019-02-19T08:51:55.731Z,98100.47
2019-02-19T08:54:20.568Z,98107.23
2019-02-19T08:56:52.179Z,98111.67
2019-02-19T08:59:23.834Z,98106.08
2019-02-19T09:01:55.360Z,98100.63
2019-02-19T09:04:26.998Z,98113.38
2019-02-19T09:06:59.577Z,98117.06
2019-02-19T09:09:31.268Z,98120.70
2019-02-19T09:12:02.977Z,98116.62
2019-02-19T09:14:34.672Z,98122.75
2019-02-19T09:17:06.215Z,98122.81
2019-02-19T09:19:37.927Z,98118.93
2019-02-19T09:22:09.694Z,98120.94
2019-02-19T09:24:41.351Z,98129.64
2019-02-19T09:27:14.989Z,98125.47
2019-02-19T09:29:47.609Z,98127.52
2019-02-19T09:32:22.243Z,98122.59
2019-02-19T09:34:53.813Z,98116.14
2019-02-19T09:37:27.065Z,98111.25
2019-02-19T09:39:58.595Z,98122.02
2019-02-19T09:42:30.241Z,98120.15
2019-02-19T09:45:01.846Z,98110.06
2019-02-19T09:47:33.801Z,98109.48
2019-02-19T09:50:05.529Z,98106.78
2019-02-19T09:52:38.321Z,98118.11
2019-02-19T09:55:11.293Z,98109.66
2019-02-19T09:57:42.874Z,98102.51
2019-02-19T10:00:14.945Z,98103.12
2019-02-19T10:02:46.559Z,98100.82
2019-02-19T10:05:18.241Z,98097.45
2019-02-19T10:07:49.828Z,98093.92
2019-02-19T10:10:21.461Z,98101.89
2019-02-19T10:12:53.159Z,98088.63
2019-02-19T10:15:26.277Z,98085.86
2019-02-19T10:17:57.975Z,98052.70
2019-02-19T10:20:29.481Z,98074.47
2019-02-19T10:23:01.185Z,98079.08
2019-02-19T10:25:32.693Z,98083.77
2019-02-19T10:28:04.294Z,98067.59
2019-02-19T10:30:35.882Z,98068.07
2019-02-19T10:33:07.550Z,98061.19
2019-02-19T10:35:39.062Z,98057.18
2019-02-19T10:38:10.633Z,98059.80
2019-02-19T10:40:42.233Z,98049.50
2019-02-19T10:43:13.895Z,98047.41
2019-02-19T10:45:45.453Z,98048.80
2019-02-19T10:48:19.296Z,98047.83
2019-02-19T10:50:50.391Z,98044.69
2019-02-19T10:53:22.161Z,98043.73
2019-02-19T10:55:53.796Z,98042.17
2019-02-19T10:58:25.530Z,98043.97
2019-02-19T11:00:57.376Z,98039.78
2019-02-19T11:03:28.983Z,98031.60
2019-02-19T11:06:00.584Z,98028.22
2019-02-19T11:08:32.205Z,98028.78
2019-02-19T11:11:03.794Z,98026.24
2019-02-19T11:13:37.497Z,98019.13
2019-02-19T11:16:08.728Z,98019.77
2019-02-19T11:18:40.428Z,98022.16
2019-02-19T11:21:19.298Z,98025.14
2019-02-19T11:23:45.462Z,98009.45
2019-02-19T11:26:17.069Z,98009.09
2019-02-19T11:28:51.694Z,98009.16
2019-02-19T11:31:23.238Z,98011.25
2019-02-19T11:33:54.847Z,98003.00
2019-02-19T11:36:26.393Z,97999.88
2019-02-19T11:38:58.011Z,98000.50
2019-02-19T11:41:29.600Z,97990.84
2019-02-19T11:44:01.155Z,97985.02
2019-02-19T11:46:32.728Z,97980.66
2019-02-19T11:49:04.642Z,97980.61
2019-02-19T11:51:36.258Z,97974.16
2019-02-19T11:54:07.819Z,97969.75
2019-02-19T11:56:39.450Z,97975.13
2019-02-19T11:59:11.008Z,97970.06
2019-02-19T12:01:44.805Z,97963.68
2019-02-19T12:04:16.364Z,97965.71
2019-02-19T12:06:49.287Z,97966.11
2019-02-19T12:09:23.254Z,97957.22
2019-02-19T12:11:54.815Z,97951.60
2019-02-19T12:14:26.392Z,97949.19
2019-02-19T12:16:58.105Z,97955.27
2019-02-19T12:19:29.697Z,97956.44
2019-02-19T12:22:01.347Z,97956.80
2019-02-19T12:24:33.053Z,97958.40
2019-02-19T12:27:04.644Z,97950.20
2019-02-19T12:29:36.403Z,97954.08
2019-02-19T12:32:08.193Z,97961.81
2019-02-19T12:34:39.924Z,97954.09
2019-02-19T12:37:11.592Z,97950.31
2019-02-19T12:39:43.200Z,97944.65
2019-02-19T12:42:14.722Z,97940.78
2019-02-19T12:44:46.347Z,97943.64
2019-02-19T12:47:18.055Z,97937.30
2019-02-19T12:49:49.742Z,97936.82
2019-02-19T12:52:21.473Z,97932.82
2019-02-19T12:54:53.185Z,97932.27
2019-02-19T12:57:24.780Z,97925.70
2019-02-19T12:59:56.885Z,97924.99
2019-02-19T13:02:28.689Z,97919.27
2019-02-19T13:05:00.402Z,97921.61
2019-02-19T13:07:32.128Z,97915.33
2019-02-19T13:10:03.880Z,97916.39
2019-02-19T13:12:35.486Z,97913.41
2019-02-19T13:15:08.541Z,97902.89
2019-02-19T13:17:40.181Z,97908.10
2019-02-19T13:20:13.333Z,97906.50
2019-02-19T13:22:44.882Z,97902.49
2019-02-19T13:25:16.662Z,97907.50
2019-02-19T13:27:48.284Z,97895.16
2019-02-19T13:30:20.060Z,97897.72
2019-02-19T13:32:53.163Z,97902.92
2019-02-19T13:35:24.640Z,97897.48
2019-02-19T13:37:56.280Z,97895.91
2019-02-19T13:40:27.794Z,97898.02
2019-02-19T13:42:59.291Z,97896.38
2019-02-19T13:45:30.950Z,97886.97
2019-02-19T13:48:05.899Z,97890.31
2019-02-19T13:50:36.043Z,97884.92
2019-02-19T13:53:16.839Z,97883.98
2019-02-19T13:55:51.163Z,97876.85
2019-02-19T13:58:25.695Z,97884.25
2019-02-19T14:00:57.318Z,97879.05
2019-02-19T14:03:28.988Z,97874.47
2019-02-19T14:06:00.579Z,97881.14
2019-02-19T14:08:32.245Z,97882.15
2019-02-19T14:11:03.829Z,97873.60
2019-02-19T14:13:35.521Z,97881.34
2019-02-19T14:16:29.713Z,97874.80
2019-02-19T14:19:09.243Z,97883.59
2019-02-19T14:21:48.204Z,97874.12
2019-02-19T14:24:38.539Z,97879.89
2019-02-19T14:27:27.378Z,97877.82
2019-02-19T14:30:20.503Z,97877.05
2019-02-19T14:33:13.458Z,97878.36
2019-02-19T14:36:02.608Z,97874.77
2019-02-19T14:39:05.037Z,97882.39
2019-02-19T14:42:08.886Z,97880.27
2019-02-19T14:45:00.348Z,97870.51
2019-02-19T14:48:01.595Z,97869.70
2019-02-19T14:50:52.866Z,97866.05
2019-02-19T14:53:57.862Z,97870.16
2019-02-19T14:56:47.165Z,97862.39
2019-02-19T14:59:36.338Z,97863.02
2019-02-19T15:02:29.396Z,97856.80
2019-02-19T15:05:30.212Z,97857.13
2019-02-19T15:08:19.114Z,97851.92
2019-02-19T15:11:08.166Z,97854.23
2019-02-19T15:13:58.219Z,97853.34
2019-02-19T15:16:57.635Z,97850.78
2019-02-19T15:19:47.923Z,97854.11
2019-02-19T15:22:38.648Z,97849.35
2019-02-19T15:25:27.312Z,97848.20
2019-02-19T15:28:21.756Z,97845.56
2019-02-19T15:31:32.850Z,97845.31
2019-02-19T15:34:23.287Z,97842.30
2019-02-19T15:37:03.200Z,97840.36
2019-02-19T15:39:53.600Z,97847.80
2019-02-19T15:42:42.820Z,97844.54
2019-02-19T15:45:34.654Z,97843.84
2019-02-19T15:48:23.755Z,97839.08
2019-02-19T15:51:07.044Z,97844.64
2019-02-19T15:54:01.614Z,97842.81
2019-02-19T15:56:51.956Z,97849.86
2019-02-19T15:59:46.292Z,97844.33
2019-02-19T16:02:35.656Z,97855.49
2019-02-19T16:05:26.102Z,97852.54
2019-02-19T16:08:22.635Z,97848.83
2019-02-19T16:11:01.843Z,97856.12
2019-02-19T16:13:52.425Z,97855.29
2019-02-19T16:16:54.782Z,97857.34
2019-02-19T16:19:37.642Z,97854.48
2019-02-19T16:22:19.171Z,97857.81
2019-02-19T16:25:01.698Z,97852.80
2019-02-19T16:27:41.473Z,97849.39
2019-02-19T16:30:34.905Z,97852.98
2019-02-19T16:33:34.484Z,97860.12
2019-02-19T16:36:30.743Z,97859.90
2019-02-19T16:39:23.852Z,97864.77
2019-02-19T16:42:02.966Z,97863.82
2019-02-19T16:44:45.614Z,97855.10
2019-02-19T16:47:42.162Z,97857.27
2019-02-19T16:50:29.800Z,97860.56
2019-02-19T16:53:19.023Z,97864.48
2019-02-19T16:56:27.599Z,97861.84
2019-02-19T16:59:20.600Z,97859.06
2019-02-19T17:02:16.757Z,97860.05
2019-02-19T17:05:06.619Z,97858.18
2019-02-19T17:07:43.803Z,97857.01
2019-02-19T17:10:39.796Z,97852.14
2019-02-19T17:13:30.402Z,97847.85
2019-02-19T17:16:26.807Z,97848.41
2019-02-19T17:19:17.181Z,97844.89
2019-02-19T17:21:55.043Z,97847.27
2019-02-19T17:24:42.934Z,97841.77
2019-02-19T17:27:38.772Z,97846.64
2019-02-19T17:30:27.253Z,97844.13
2019-02-19T17:33:26.455Z,97847.02
2019-02-19T17:36:05.567Z,97850.23
2019-02-19T17:38:49.907Z,97845.11
2019-02-19T17:41:42.963Z,97844.78
2019-02-19T17:44:22.230Z,97845.62
2019-02-19T17:47:18.802Z,97843.75
2019-02-19T17:50:07.674Z,97832.40
2019-02-19T17:53:02.144Z,97832.14
2019-02-19T17:55:50.619Z,97830.94
2019-02-19T17:58:37.034Z,97833.42
2019-02-19T18:01:18.116Z,97838.48
2019-02-19T18:04:07.189Z,97836.69
2019-02-19T18:07:05.960Z,97829.58
2019-02-19T18:10:02.039Z,97825.92
2019-02-19T18:12:51.033Z,97829.44
2019-02-19T18:15:41.342Z,97822.15
2019-02-19T18:18:24.672Z,97827.02
2019-02-19T18:20:56.384Z,97815.52
2019-02-19T18:23:28.138Z,97819.07
2019-02-19T18:25:59.841Z,97814.23
2019-02-19T18:28:31.355Z,97813.95
2019-02-19T18:31:03.124Z,97811.68
2019-02-19T18:33:35.628Z,97807.72
2019-02-19T18:36:07.333Z,97805.60
2019-02-19T18:38:38.998Z,97813.36
2019-02-19T18:41:10.757Z,97805.86
2019-02-19T18:43:42.268Z,97810.61
2019-02-19T18:46:13.887Z,97801.98
2019-02-19T18:48:45.427Z,97805.42
2019-02-19T18:51:16.998Z,97814.78
2019-02-19T18:53:51.347Z,97799.59
2019-02-19T18:56:23.045Z,97804.20
2019-02-19T18:58:54.764Z,97801.69
2019-02-19T19:01:26.535Z,97804.06
2019-02-19T19:03:58.298Z,97806.70
2019-02-19T19:06:30.048Z,97800.18
2019-02-19T19:09:01.890Z,97798.57
2019-02-19T19:11:34.488Z,97794.33
2019-02-19T19:14:06.068Z,97797.41
2019-02-19T19:16:37.743Z,97800.73
2019-02-19T19:19:09.352Z,97794.47
2019-02-19T19:21:40.862Z,97800.63
2019-02-19T19:24:13.760Z,97791.62
2019-02-19T19:26:45.290Z,97793.41
2019-02-19T19:29:18.039Z,97797.25
2019-02-19T19:31:49.591Z,97794.18
2019-02-19T19:34:21.384Z,97787.16
2019-02-19T19:36:53.212Z,97793.81
2019-02-19T19:39:26.097Z,97790.41
2019-02-19T19:41:57.878Z,97794.40
2019-02-19T19:44:29.611Z,97785.69
2019-02-19T19:47:01.144Z,97785.47
2019-02-19T19:49:32.952Z,97789.31
2019-02-19T19:52:04.673Z,97781.11
2019-02-19T19:54:36.438Z,97779.83
2019-02-19T19:57:13.911Z,97772.91
2019-02-19T19:59:46.531Z,97775.48
2019-02-19T20:02:19.975Z,97777.75
2019-02-19T20:04:51.459Z,97764.72
2019-02-19T20:07:23.146Z,97778.55
2019-02-19T20:09:54.778Z,97770.53
2019-02-19T20:12:26.355Z,97764.60
2019-02-19T20:14:58.054Z,97770.09
2019-02-19T20:17:30.357Z,97768.45
2019-02-19T20:20:02.169Z,97769.06
2019-02-19T20:22:34.423Z,97768.88
2019-02-19T20:25:06.354Z,97766.77
2019-02-19T20:27:38.021Z,97765.59
2019-02-19T20:30:10.769Z,97761.38
2019-02-19T20:32:42.335Z,97756.62
2019-02-19T20:35:14.188Z,97761.38
2019-02-19T20:37:53.771Z,97753.08
2019-02-19T20:40:20.355Z,97746.20
2019-02-19T20:42:55.113Z,97751.03
2019-02-19T20:45:26.451Z,97739.42
2019-02-19T20:47:59.795Z,97742.94
2019-02-19T20:50:32.164Z,97746.27
2019-02-19T20:53:04.002Z,97743.56
2019-02-19T20:55:37.406Z,97735.44
2019-02-19T20:58:11.048Z,97737.67
2019-02-19T21:00:45.327Z,97733.98
2019-02-19T21:03:16.975Z,97731.23
2019-02-19T21:05:48.816Z,97720.26
2019-02-19T21:08:20.418Z,97713.59
2019-02-19T21:10:54.440Z,97718.35
2019-02-19T21:13:27.041Z,97713.86
2019-02-19T21:15:58.719Z,97721.94
2019-02-19T21:18:30.517Z,97719.48
2019-02-19T21:21:02.124Z,97713.09
2019-02-19T21:23:33.859Z,97707.56
2019-02-19T21:26:06.827Z,97705.73
2019-02-19T21:28:38.509Z,97697.72
2019-02-19T21:31:10.287Z,97697.72
2019-02-19T21:33:41.932Z,97700.02
2019-02-19T21:36:13.785Z,97699.44
2019-02-19T21:38:47.024Z,97692.09
2019-02-19T21:41:18.644Z,97692.41
2019-02-19T21:43:51.645Z,97688.87
2019-02-19T21:46:25.197Z,97688.94
2019-02-19T21:48:56.931Z,97689.27
2019-02-19T21:51:29.869Z,97690.55
2019-02-19T21:54:01.622Z,97684.26
2019-02-19T21:56:33.454Z,97680.48
2019-02-19T21:59:06.410Z,97679.21
2019-02-19T22:01:39.275Z,97674.34
2019-02-19T22:04:10.987Z,97671.20
2019-02-19T22:06:43.970Z,97674.09
2019-02-19T22:09:15.706Z,97678.37
2019-02-19T22:11:48.475Z,97666.96
2019-02-19T22:14:21.200Z,97673.36
2019-02-19T22:16:52.882Z,97670.80
2019-02-19T22:19:26.203Z,97671.71
2019-02-19T22:22:03.685Z,97664.98
2019-02-19T22:24:36.455Z,97663.88
2019-02-19T22:27:09.588Z,97663.80
2019-02-19T22:29:41.640Z,97663.26
2019-02-19T22:32:17.870Z,97660.03
2019-02-19T22:34:49.567Z,97655.54
2019-02-19T22:37:21.307Z,97649.88
2019-02-19T22:39:53.019Z,97660.73
2019-02-19T22:42:24.852Z,97662.59
2019-02-19T22:44:56.376Z,97649.10
2019-02-19T22:47:28.183Z,97649.14
2019-02-19T22:49:59.838Z,97646.98
2019-02-19T22:52:31.796Z,97644.02
2019-02-19T22:55:34.090Z,97641.02
2019-02-19T22:58:05.796Z,97643.61
2019-02-19T23:01:05.800Z,97640.68
2019-02-19T23:03:39.425Z,97636.14
2019-02-19T23:06:11.136Z,97636.65
2019-02-19T23:08:42.643Z,97629.19
2019-02-19T23:11:14.341Z,97623.44
2019-02-19T23:13:45.857Z,97629.87
2019-02-19T23:16:20.340Z,97623.55
2019-02-19T23:18:51.873Z,97625.23
2019-02-19T23:21:23.521Z,97621.91
2019-02-19T23:23:55.055Z,97636.51
2019-02-19T23:26:26.612Z,97619.89
2019-02-19T23:29:00.115Z,97616.30
2019-02-19T23:31:31.932Z,97612.09
2019-02-19T23:34:03.612Z,97613.88
2019-02-19T23:36:45.793Z,97610.30
2019-02-19T23:39:17.455Z,97614.14
2019-02-19T23:41:49.172Z,97615.42
2019-02-19T23:44:20.947Z,97607.24
2019-02-19T23:46:55.551Z,97606.77
2019-02-19T23:49:27.263Z,97598.22
2019-02-19T23:51:58.927Z,97603.27
2019-02-19T23:54:30.629Z,97596.37
2019-02-19T23:57:04.411Z,97596.27
2019-02-19T23:59:35.898Z,97586.80
